Time;durP1;ratioP1;P1;durP2;ratioP2;P2;SDS_P1;SDS_P2;PMS_P1;PMS_P2;Temp;Humidity;BMP_temperature;BMP_pressure;BME280_temperature;BME280_humidity;BME280_pressure;Samples;Min_cycle;Max_cycle;Signal;HPM_P1;HPM_P2
2022/03/01 00:02:14;;;;;;;19.70;9.30;;;0.50;99.90;;;;;;5049405;28;20458;-64
2022/03/01 00:04:41;;;;;;;11.23;8.03;;;0.50;99.90;;;;;;5044234;28;20444;-65
2022/03/01 00:07:09;;;;;;;12.83;8.03;;;0.40;99.90;;;;;;5041233;28;20451;-64
2022/03/01 00:09:37;;;;;;;11.97;7.73;;;0.40;99.90;;;;;;5049090;28;20547;-64
2022/03/01 00:12:05;;;;;;;14.47;8.60;;;0.40;99.90;;;;;;5048870;28;20501;-64
2022/03/01 00:14:32;;;;;;;16.60;9.43;;;0.30;99.90;;;;;;5049354;28;20535;-65
2022/03/01 00:16:59;;;;;;;13.00;9.10;;;0.30;99.90;;;;;;5048437;28;20918;-64
2022/03/01 00:19:27;;;;;;;14.60;8.93;;;0.30;99.90;;;;;;5048841;28;20543;-64
2022/03/01 00:21:54;;;;;;;13.70;9.17;;;0.40;99.90;;;;;;5048278;28;20686;-64
2022/03/01 00:24:23;;;;;;;11.03;8.33;;;0.30;99.90;;;;;;5048513;28;20534;-64
2022/03/01 00:26:49;;;;;;;15.20;9.10;;;0.30;99.90;;;;;;5048867;28;20455;-64
2022/03/01 00:29:16;;;;;;;14.70;9.27;;;0.40;99.90;;;;;;5048783;28;20452;-65
2022/03/01 00:31:43;;;;;;;13.57;8.53;;;0.30;99.90;;;;;;5048670;28;20467;-65
2022/03/01 00:34:10;;;;;;;13.37;8.77;;;0.40;99.90;;;;;;5048104;28;20519;-64
2022/03/01 00:36:37;;;;;;;18.13;10.67;;;0.40;99.90;;;;;;5048856;28;20458;-64
2022/03/01 00:39:05;;;;;;;15.47;10.10;;;0.50;99.90;;;;;;5048593;28;20518;-64
2022/03/01 00:41:33;;;;;;;14.40;9.10;;;0.50;99.90;;;;;;5047202;28;20559;-64
2022/03/01 00:44:00;;;;;;;18.33;9.60;;;0.40;99.90;;;;;;5048087;28;20450;-64
2022/03/01 00:46:27;;;;;;;15.70;10.23;;;0.50;99.90;;;;;;5049032;28;20448;-64
2022/03/01 00:48:54;;;;;;;13.07;9.13;;;0.50;99.90;;;;;;5048435;28;20456;-64
2022/03/01 00:51:21;;;;;;;17.30;9.03;;;0.50;99.90;;;;;;5047833;28;20543;-65
2022/03/01 00:53:48;;;;;;;17.00;10.03;;;0.40;99.90;;;;;;5048695;28;20578;-65
2022/03/01 00:56:15;;;;;;;13.23;9.27;;;0.40;99.90;;;;;;5047897;28;20448;-65
2022/03/01 00:58:43;;;;;;;15.80;9.70;;;0.30;99.90;;;;;;5048845;28;20476;-65
2022/03/01 01:01:10;;;;;;;15.90;9.53;;;0.30;99.90;;;;;;5047647;28;20834;-65
2022/03/01 01:03:37;;;;;;;16.53;10.60;;;0.20;99.90;;;;;;5048437;28;20444;-65
2022/03/01 01:06:04;;;;;;;17.40;10.20;;;0.10;99.90;;;;;;5047816;28;21027;-65
2022/03/01 01:08:30;;;;;;;18.33;10.30;;;0.10;99.90;;;;;;5042060;28;20534;-65
2022/03/01 01:10:57;;;;;;;14.10;10.27;;;0.10;99.90;;;;;;5047855;28;20845;-65
2022/03/01 01:13:24;;;;;;;17.10;10.07;;;0.00;99.90;;;;;;5044760;28;20486;-65
2022/03/01 01:15:53;;;;;;;14.10;9.40;;;0.00;99.90;;;;;;5048308;28;20838;-65
2022/03/01 01:18:19;;;;;;;13.50;10.47;;;0.00;99.90;;;;;;5047922;28;20471;-65
2022/03/01 01:20:46;;;;;;;15.90;10.00;;;0.00;99.90;;;;;;5048144;28;20464;-65
2022/03/01 01:23:13;;;;;;;12.67;8.60;;;0.00;99.90;;;;;;5047916;28;20837;-65
2022/03/01 01:25:40;;;;;;;13.03;9.33;;;-0.10;99.90;;;;;;5048051;28;20478;-65
2022/03/01 01:28:07;;;;;;;15.37;9.93;;;-0.20;99.90;;;;;;5048023;28;20539;-65
2022/03/01 01:30:36;;;;;;;14.20;10.67;;;-0.20;99.90;;;;;;5047844;28;20478;-64
2022/03/01 01:33:05;;;;;;;14.43;9.03;;;-0.30;99.90;;;;;;5047884;28;20491;-65
2022/03/01 01:35:35;;;;;;;19.33;10.70;;;-0.20;99.90;;;;;;5047771;28;20543;-65
2022/03/01 01:38:02;;;;;;;23.10;10.40;;;-0.20;99.90;;;;;;5047808;28;20614;-65
2022/03/01 01:40:30;;;;;;;15.00;10.63;;;-0.20;99.90;;;;;;5048138;28;20490;-65
2022/03/01 01:42:59;;;;;;;13.73;8.37;;;-0.30;99.90;;;;;;5047232;28;20452;-64
2022/03/01 01:45:26;;;;;;;14.30;9.87;;;-0.40;99.90;;;;;;5044862;28;20453;-64
2022/03/01 01:47:54;;;;;;;14.63;10.43;;;-0.40;99.90;;;;;;5047471;28;20687;-64
2022/03/01 01:50:24;;;;;;;17.67;10.77;;;-0.40;99.90;;;;;;5044394;28;21246;-64
2022/03/01 01:52:52;;;;;;;15.60;9.93;;;-0.50;99.90;;;;;;5037344;28;20475;-65
2022/03/01 01:55:21;;;;;;;12.97;9.40;;;-0.50;99.90;;;;;;5048682;28;20452;-71
2022/03/01 01:57:48;;;;;;;17.30;10.77;;;-0.50;99.90;;;;;;5049243;28;20439;-66
2022/03/01 02:00:17;;;;;;;16.13;9.90;;;-0.50;99.90;;;;;;5049814;28;20468;-65
2022/03/01 02:02:45;;;;;;;14.90;10.10;;;-0.50;99.90;;;;;;5050605;28;21020;-65
2022/03/01 02:05:13;;;;;;;15.97;10.30;;;-0.60;99.90;;;;;;5053230;28;20450;-65
2022/03/01 02:07:47;;;;;;;17.33;11.80;;;-0.70;99.90;;;;;;5053164;28;20867;-65
2022/03/01 02:10:14;;;;;;;16.73;9.70;;;-0.60;99.90;;;;;;5053023;28;20494;-64
2022/03/01 02:12:41;;;;;;;16.40;10.63;;;-0.70;99.90;;;;;;5053256;28;20530;-64
2022/03/01 02:15:09;;;;;;;15.50;10.43;;;-0.70;99.90;;;;;;5052820;28;20460;-65
2022/03/01 02:17:39;;;;;;;15.63;10.10;;;-0.80;99.90;;;;;;5053029;28;20455;-64
2022/03/01 02:20:13;;;;;;;16.50;10.63;;;-0.70;99.90;;;;;;5052965;28;20545;-65
2022/03/01 02:22:40;;;;;;;15.57;9.63;;;-0.80;99.90;;;;;;5053129;28;20443;-65
2022/03/01 02:25:08;;;;;;;16.50;9.83;;;-0.70;99.90;;;;;;5052839;28;20448;-65
2022/03/01 02:27:34;;;;;;;14.93;9.87;;;-0.80;99.90;;;;;;5053484;28;20440;-65
2022/03/01 02:30:01;;;;;;;15.43;10.27;;;-0.80;99.90;;;;;;5053050;28;20488;-64
2022/03/01 02:32:28;;;;;;;16.00;10.83;;;-0.80;99.90;;;;;;5053209;28;20466;-64
2022/03/01 02:34:55;;;;;;;15.63;10.67;;;-0.80;99.90;;;;;;5052305;28;20551;-65
2022/03/01 02:37:23;;;;;;;12.63;8.83;;;-0.80;99.90;;;;;;5052603;28;20452;-65
2022/03/01 02:39:53;;;;;;;14.17;9.10;;;-0.80;99.90;;;;;;5052996;28;20987;-65
2022/03/01 02:42:19;;;;;;;16.20;10.47;;;-0.80;99.90;;;;;;5052957;28;20436;-66
2022/03/01 02:44:47;;;;;;;17.10;9.90;;;-0.90;99.90;;;;;;5052850;28;20466;-65
2022/03/01 02:47:14;;;;;;;12.20;9.30;;;-0.90;99.90;;;;;;5052345;28;20459;-65
2022/03/01 02:49:41;;;;;;;19.80;11.40;;;-1.00;99.90;;;;;;5052547;28;20539;-65
2022/03/01 02:52:08;;;;;;;15.80;10.30;;;-1.00;99.90;;;;;;5052262;28;20452;-66
2022/03/01 02:54:36;;;;;;;14.80;9.30;;;-1.10;99.90;;;;;;5051990;28;20486;-65
2022/03/01 02:57:04;;;;;;;17.93;10.50;;;-1.10;99.90;;;;;;5052428;28;20459;-65
2022/03/01 02:59:32;;;;;;;17.33;10.80;;;-1.10;99.90;;;;;;5052285;28;20444;-66
2022/03/01 03:01:59;;;;;;;16.97;10.60;;;-1.10;99.90;;;;;;5051872;28;21025;-65
2022/03/01 03:04:26;;;;;;;16.97;10.37;;;-1.10;99.90;;;;;;5051620;28;20444;-65
2022/03/01 03:06:53;;;;;;;14.27;11.17;;;-1.10;99.90;;;;;;5052133;28;20450;-65
2022/03/01 03:09:21;;;;;;;18.87;9.90;;;-1.10;99.90;;;;;;5052265;28;20513;-65
2022/03/01 03:11:50;;;;;;;20.70;11.60;;;-1.10;99.90;;;;;;5051771;28;21147;-65
2022/03/01 03:14:18;;;;;;;18.13;11.20;;;-1.20;99.90;;;;;;5050898;28;20491;-65
2022/03/01 03:16:45;;;;;;;21.17;11.40;;;-1.20;99.90;;;;;;5051579;28;20460;-65
2022/03/01 03:19:15;;;;;;;15.20;9.37;;;-1.20;99.90;;;;;;5038496;28;20449;-65
2022/03/01 03:21:42;;;;;;;14.93;9.87;;;-1.10;99.90;;;;;;5033844;28;20473;-65
2022/03/01 03:24:09;;;;;;;15.23;10.20;;;-1.00;99.90;;;;;;5033076;28;20471;-64
2022/03/01 03:26:36;;;;;;;16.40;10.90;;;-0.90;99.90;;;;;;5032814;28;20503;-65
2022/03/01 03:29:04;;;;;;;13.83;9.00;;;-0.90;99.90;;;;;;5038679;28;20480;-65
2022/03/01 03:31:31;;;;;;;13.87;9.33;;;-0.90;99.90;;;;;;5046986;28;20495;-65
2022/03/01 03:33:58;;;;;;;14.43;9.57;;;-0.90;99.90;;;;;;5051034;28;20555;-65
2022/03/01 03:36:25;;;;;;;16.87;10.27;;;-0.90;99.90;;;;;;5051256;28;20448;-65
2022/03/01 03:38:52;;;;;;;16.83;9.90;;;-0.90;99.90;;;;;;5042195;28;20958;-65
2022/03/01 03:41:19;;;;;;;13.00;9.40;;;-1.00;99.90;;;;;;5045466;28;20479;-65
2022/03/01 03:43:45;;;;;;;18.43;10.37;;;-1.00;99.90;;;;;;5051018;28;20895;-65
2022/03/01 03:46:14;;;;;;;17.40;9.37;;;-1.00;99.90;;;;;;5051035;28;20440;-65
2022/03/01 03:48:41;;;;;;;15.40;9.80;;;-1.00;99.90;;;;;;5051215;28;20449;-65
2022/03/01 03:51:07;;;;;;;14.70;10.13;;;-1.10;99.90;;;;;;5050907;28;20478;-65
2022/03/01 03:53:34;;;;;;;15.20;10.50;;;-1.20;99.90;;;;;;5047627;28;20521;-65
2022/03/01 03:56:01;;;;;;;16.73;10.37;;;-1.20;99.90;;;;;;5048765;28;20472;-65
2022/03/01 03:58:28;;;;;;;15.20;10.17;;;-1.30;99.90;;;;;;5051031;28;20546;-65
2022/03/01 04:00:55;;;;;;;16.67;11.03;;;-1.30;99.90;;;;;;5050688;28;20973;-65
2022/03/01 04:03:24;;;;;;;15.97;11.20;;;-1.30;99.90;;;;;;5051232;28;20530;-65
2022/03/01 04:05:51;;;;;;;19.30;10.87;;;-1.30;99.90;;;;;;5050769;28;20447;-65
2022/03/01 04:08:18;;;;;;;17.63;10.80;;;-1.30;99.90;;;;;;5051812;28;20451;-65
2022/03/01 04:10:45;;;;;;;15.90;9.60;;;-1.20;99.90;;;;;;5053295;28;20460;-66
2022/03/01 04:13:12;;;;;;;11.40;8.93;;;-1.10;99.90;;;;;;5052115;28;20444;-65
2022/03/01 04:15:39;;;;;;;17.17;10.70;;;-1.10;99.90;;;;;;5052062;28;20455;-65
2022/03/01 04:18:06;;;;;;;16.07;9.53;;;-1.00;99.90;;;;;;5051735;28;20498;-65
2022/03/01 04:20:34;;;;;;;17.80;10.83;;;-1.00;99.90;;;;;;5051769;28;20494;-65
2022/03/01 04:23:01;;;;;;;13.47;9.00;;;-1.00;99.90;;;;;;5050990;28;20808;-65
2022/03/01 04:25:28;;;;;;;14.13;9.57;;;-1.00;99.90;;;;;;5036454;28;20456;-65
2022/03/01 04:27:55;;;;;;;16.63;9.77;;;-1.00;99.90;;;;;;5049055;28;20456;-65
2022/03/01 04:30:22;;;;;;;13.10;10.10;;;-0.90;99.90;;;;;;5050650;28;20952;-65
2022/03/01 04:32:50;;;;;;;11.93;8.53;;;-1.00;99.90;;;;;;5050251;28;20965;-65
2022/03/01 04:35:17;;;;;;;19.47;10.87;;;-1.00;99.90;;;;;;5050241;28;21009;-65
2022/03/01 04:37:45;;;;;;;12.93;8.70;;;-1.00;99.90;;;;;;5050037;28;20495;-65
2022/03/01 04:40:14;;;;;;;16.43;9.60;;;-1.00;99.90;;;;;;5050271;28;20973;-65
2022/03/01 04:42:41;;;;;;;14.57;9.10;;;-1.00;99.90;;;;;;5050390;28;20448;-65
2022/03/01 04:45:10;;;;;;;10.77;9.17;;;-1.00;99.90;;;;;;5050075;28;20543;-65
2022/03/01 04:47:38;;;;;;;15.53;10.83;;;-1.10;99.90;;;;;;5050025;28;20454;-65
2022/03/01 04:50:05;;;;;;;15.07;9.43;;;-1.10;99.90;;;;;;5050347;28;20497;-66
2022/03/01 04:52:32;;;;;;;13.50;9.50;;;-1.20;99.90;;;;;;5050253;28;20452;-63
2022/03/01 04:55:00;;;;;;;14.50;9.90;;;-1.20;99.90;;;;;;5049521;28;21076;-63
2022/03/01 04:57:27;;;;;;;18.57;10.77;;;-1.20;99.90;;;;;;5050294;28;20490;-65
2022/03/01 04:59:54;;;;;;;13.93;10.37;;;-1.20;99.90;;;;;;5049939;28;20554;-64
2022/03/01 05:02:21;;;;;;;14.60;10.00;;;-1.20;99.90;;;;;;5050176;28;20851;-64
2022/03/01 05:04:48;;;;;;;12.07;8.80;;;-1.10;99.90;;;;;;5049775;28;20501;-64
2022/03/01 05:07:16;;;;;;;15.17;9.43;;;-1.10;99.90;;;;;;5050155;28;20459;-65
2022/03/01 05:09:43;;;;;;;14.07;9.67;;;-1.10;99.90;;;;;;5050356;28;20833;-65
2022/03/01 05:12:12;;;;;;;16.77;10.23;;;-1.20;99.90;;;;;;5049982;28;20452;-65
2022/03/01 05:14:39;;;;;;;17.80;9.00;;;-1.10;99.90;;;;;;5049633;28;20569;-65
2022/03/01 05:17:06;;;;;;;15.33;9.27;;;-1.20;99.90;;;;;;5049999;28;20467;-65
2022/03/01 05:19:33;;;;;;;19.40;11.90;;;-1.30;99.90;;;;;;5049510;28;20440;-65
2022/03/01 05:22:00;;;;;;;14.27;9.93;;;-1.40;99.90;;;;;;5049803;28;20440;-65
2022/03/01 05:24:27;;;;;;;18.13;10.83;;;-1.50;99.90;;;;;;5049514;28;20478;-66
2022/03/01 05:26:54;;;;;;;17.83;11.23;;;-1.60;99.90;;;;;;5049469;28;20502;-65
2022/03/01 05:29:22;;;;;;;18.60;10.10;;;-1.70;99.90;;;;;;5049708;28;20451;-65
2022/03/01 05:31:49;;;;;;;15.17;11.10;;;-1.80;99.90;;;;;;5049402;28;20871;-65
2022/03/01 05:34:17;;;;;;;13.13;10.27;;;-1.80;99.90;;;;;;5049575;28;20483;-65
2022/03/01 05:36:43;;;;;;;17.10;11.60;;;-1.90;99.90;;;;;;5049558;28;21075;-65
2022/03/01 05:39:10;;;;;;;14.70;9.47;;;-1.90;99.90;;;;;;5053433;28;20454;-65
2022/03/01 05:41:40;;;;;;;14.23;9.60;;;-1.80;99.90;;;;;;5053851;28;20574;-65
2022/03/01 05:44:07;;;;;;;18.53;11.23;;;-1.80;99.90;;;;;;5053446;28;20444;-64
2022/03/01 05:46:35;;;;;;;15.77;10.60;;;-1.70;99.90;;;;;;5053247;28;20455;-65
2022/03/01 05:49:02;;;;;;;16.87;10.63;;;-1.70;99.90;;;;;;5053371;28;20476;-65
2022/03/01 05:51:32;;;;;;;15.23;10.17;;;-1.70;99.90;;;;;;5053527;28;20533;-65
2022/03/01 05:53:59;;;;;;;25.43;12.13;;;-1.70;99.90;;;;;;5053399;28;20484;-65
2022/03/01 05:56:26;;;;;;;17.17;10.20;;;-1.70;99.90;;;;;;5053417;28;20444;-65
2022/03/01 05:58:52;;;;;;;17.47;9.63;;;-1.70;99.90;;;;;;5053615;28;20452;-65
2022/03/01 06:01:19;;;;;;;16.47;10.33;;;-1.70;99.90;;;;;;5053488;28;20482;-65
2022/03/01 06:03:47;;;;;;;21.40;11.43;;;-1.80;99.90;;;;;;5053575;28;20534;-65
2022/03/01 06:06:14;;;;;;;16.07;9.90;;;-1.90;99.90;;;;;;5053611;28;20452;-65
2022/03/01 06:08:41;;;;;;;18.53;9.87;;;-2.00;99.90;;;;;;5053035;28;20983;-65
2022/03/01 06:11:08;;;;;;;16.37;11.20;;;-2.00;99.90;;;;;;5053095;28;20518;-65
2022/03/01 06:13:37;;;;;;;16.27;10.40;;;-1.90;99.90;;;;;;5053081;28;20968;-65
2022/03/01 06:16:05;;;;;;;17.10;10.73;;;-1.80;99.90;;;;;;5052903;28;20509;-65
2022/03/01 06:18:33;;;;;;;15.57;10.43;;;-1.80;99.90;;;;;;5052688;28;20454;-64
2022/03/01 06:21:02;;;;;;;15.87;10.30;;;-1.80;99.90;;;;;;5053083;28;20467;-64
2022/03/01 06:23:29;;;;;;;17.97;10.20;;;-1.70;99.90;;;;;;5052760;28;20907;-64
2022/03/01 06:25:56;;;;;;;17.13;10.43;;;-1.60;99.90;;;;;;5052314;28;20436;-64
2022/03/01 06:28:22;;;;;;;18.50;9.87;;;-1.60;99.90;;;;;;5052501;28;20535;-64
2022/03/01 06:30:49;;;;;;;15.37;10.30;;;-1.60;99.90;;;;;;5052408;28;20463;-64
2022/03/01 06:33:18;;;;;;;20.80;11.50;;;-1.50;99.90;;;;;;5052558;28;20439;-64
2022/03/01 06:35:45;;;;;;;17.20;10.90;;;-1.60;99.90;;;;;;5052026;28;20585;-64
2022/03/01 06:38:13;;;;;;;15.90;11.00;;;-1.60;99.90;;;;;;5052585;28;20447;-64
2022/03/01 06:40:40;;;;;;;22.13;11.43;;;-1.60;99.90;;;;;;5052019;28;20510;-64
2022/03/01 06:43:07;;;;;;;17.13;10.23;;;-1.60;99.90;;;;;;5052088;28;20440;-64
2022/03/01 06:45:34;;;;;;;18.13;11.43;;;-1.60;99.90;;;;;;5051429;28;20483;-64
2022/03/01 06:48:01;;;;;;;18.87;10.30;;;-1.50;99.90;;;;;;5052302;28;20548;-64
2022/03/01 06:50:28;;;;;;;15.60;11.40;;;-1.50;99.90;;;;;;5050950;28;20459;-64
2022/03/01 06:52:55;;;;;;;19.93;10.77;;;-1.40;99.90;;;;;;5052056;28;20448;-64
2022/03/01 06:55:23;;;;;;;18.33;11.47;;;-1.40;99.90;;;;;;5051408;28;20488;-64
2022/03/01 06:57:51;;;;;;;20.27;11.17;;;-1.30;99.90;;;;;;5051693;28;20964;-64
2022/03/01 07:00:17;;;;;;;22.17;10.83;;;-1.20;99.90;;;;;;5051717;28;20551;-65
2022/03/01 07:02:44;;;;;;;17.37;12.10;;;-1.20;99.90;;;;;;5051581;28;20535;-64
2022/03/01 07:05:12;;;;;;;17.63;10.20;;;-1.10;99.90;;;;;;5051843;28;20444;-64
2022/03/01 07:07:39;;;;;;;18.67;11.43;;;-1.00;99.90;;;;;;5051726;28;20822;-65
2022/03/01 07:10:09;;;;;;;17.83;10.47;;;-1.00;99.90;;;;;;5051721;28;20567;-64
2022/03/01 07:12:37;;;;;;;18.70;11.20;;;-0.90;99.90;;;;;;5051861;28;20448;-64
2022/03/01 07:15:05;;;;;;;18.80;10.93;;;-0.80;99.90;;;;;;5051289;28;21119;-64
2022/03/01 07:17:32;;;;;;;16.43;9.93;;;-0.70;99.90;;;;;;5051363;28;20452;-65
2022/03/01 07:19:59;;;;;;;12.93;9.73;;;-0.60;99.90;;;;;;5051581;28;20503;-65
2022/03/01 07:22:26;;;;;;;12.30;9.33;;;-0.40;99.90;;;;;;5051311;28;20456;-65
2022/03/01 07:24:53;;;;;;;14.20;9.00;;;-0.30;99.90;;;;;;5050795;28;20448;-65
2022/03/01 07:27:20;;;;;;;15.70;9.80;;;-0.20;99.90;;;;;;5051439;28;20444;-65
2022/03/01 07:29:48;;;;;;;20.00;11.23;;;-0.10;99.90;;;;;;5051455;28;20832;-65
2022/03/01 07:32:15;;;;;;;14.70;10.23;;;0.00;99.90;;;;;;5051683;28;21048;-65
2022/03/01 07:34:42;;;;;;;14.60;9.10;;;0.20;99.90;;;;;;5048755;28;20582;-65
2022/03/01 07:37:10;;;;;;;13.23;9.10;;;0.30;99.90;;;;;;5032911;28;20452;-65
2022/03/01 07:39:37;;;;;;;14.30;9.87;;;0.50;99.90;;;;;;5047507;28;20473;-65
2022/03/01 07:42:05;;;;;;;13.43;9.47;;;0.60;99.90;;;;;;5051219;28;20491;-65
2022/03/01 07:44:36;;;;;;;14.57;11.03;;;0.70;99.90;;;;;;5050816;28;20480;-65
2022/03/01 07:47:05;;;;;;;15.00;9.77;;;0.80;99.90;;;;;;5051244;28;20517;-65
2022/03/01 07:49:32;;;;;;;14.77;9.77;;;0.90;99.90;;;;;;5051206;28;20459;-65
2022/03/01 07:51:59;;;;;;;14.27;9.70;;;0.90;99.90;;;;;;5051416;28;20445;-66
2022/03/01 07:54:26;;;;;;;13.40;9.07;;;1.00;99.90;;;;;;5050761;28;20452;-68
2022/03/01 07:56:53;;;;;;;17.40;10.10;;;1.20;99.90;;;;;;5051369;28;20447;-65
2022/03/01 07:59:20;;;;;;;15.13;10.47;;;1.20;99.90;;;;;;5051268;28;20451;-65
2022/03/01 08:01:47;;;;;;;13.67;8.80;;;1.30;99.90;;;;;;5050347;28;20920;-65
2022/03/01 08:04:15;;;;;;;12.50;9.23;;;1.40;99.90;;;;;;5050871;28;20518;-66
2022/03/01 08:06:42;;;;;;;12.33;8.73;;;1.50;99.90;;;;;;5050493;28;20444;-66
2022/03/01 08:09:09;;;;;;;13.10;11.07;;;1.60;99.90;;;;;;5050785;28;20531;-66
2022/03/01 08:11:36;;;;;;;13.77;10.50;;;1.70;99.90;;;;;;5050424;28;20471;-66
2022/03/01 08:14:02;;;;;;;16.17;9.57;;;1.80;99.90;;;;;;5050242;28;20437;-64
2022/03/01 08:16:29;;;;;;;14.47;8.57;;;2.00;99.90;;;;;;5050153;28;20871;-66
2022/03/01 08:18:56;;;;;;;12.70;9.60;;;2.00;99.90;;;;;;5050689;28;21016;-65
2022/03/01 08:21:24;;;;;;;17.53;10.00;;;2.20;99.90;;;;;;5050243;28;20496;-66
2022/03/01 08:23:51;;;;;;;15.20;9.67;;;2.30;99.90;;;;;;5050859;28;20475;-65
2022/03/01 08:26:18;;;;;;;17.83;9.80;;;2.50;99.90;;;;;;5050300;28;20447;-66
2022/03/01 08:28:46;;;;;;;14.97;9.77;;;2.60;99.90;;;;;;5050516;28;20454;-66
2022/03/01 08:31:13;;;;;;;14.13;9.37;;;2.80;99.90;;;;;;5050569;28;20460;-65
2022/03/01 08:33:40;;;;;;;16.93;9.50;;;3.00;99.90;;;;;;5050072;28;20454;-65
2022/03/01 08:36:08;;;;;;;11.67;9.17;;;3.10;99.30;;;;;;5050093;28;20484;-65
2022/03/01 08:38:37;;;;;;;14.03;9.50;;;3.30;99.20;;;;;;5049942;28;20448;-65
2022/03/01 08:41:04;;;;;;;13.43;9.17;;;3.50;98.80;;;;;;5050448;28;20468;-65
2022/03/01 08:43:31;;;;;;;15.40;9.83;;;3.60;98.60;;;;;;5050248;28;20534;-66
2022/03/01 08:45:57;;;;;;;12.83;8.73;;;3.90;98.30;;;;;;5049865;28;20527;-66
2022/03/01 08:48:25;;;;;;;15.80;10.67;;;4.00;97.40;;;;;;5049936;28;20984;-66
2022/03/01 08:50:53;;;;;;;13.90;8.73;;;4.20;96.90;;;;;;5049880;28;20475;-65
2022/03/01 08:53:20;;;;;;;14.83;10.10;;;4.20;96.60;;;;;;5049899;28;20448;-66
2022/03/01 08:55:49;;;;;;;17.80;8.97;;;4.40;96.40;;;;;;5049301;28;20514;-64
2022/03/01 08:58:16;;;;;;;20.70;9.60;;;4.50;95.90;;;;;;5040858;28;20453;-64
2022/03/01 09:00:43;;;;;;;14.67;9.10;;;4.70;95.70;;;;;;5031287;28;20475;-65
2022/03/01 09:03:10;;;;;;;14.37;9.33;;;5.00;95.00;;;;;;5030328;28;20833;-65
2022/03/01 09:05:37;;;;;;;11.57;8.50;;;5.10;95.30;;;;;;5029671;28;20449;-65
2022/03/01 09:08:05;;;;;;;11.40;8.30;;;5.20;95.00;;;;;;5031249;28;20457;-66
2022/03/01 09:10:33;;;;;;;11.10;8.10;;;5.60;94.10;;;;;;5044105;28;20472;-65
2022/03/01 09:13:01;;;;;;;14.60;10.13;;;5.70;93.90;;;;;;5036242;28;20440;-65
2022/03/01 09:15:31;;;;;;;12.00;8.67;;;5.90;93.70;;;;;;5032130;28;20571;-66
2022/03/01 09:17:58;;;;;;;11.37;8.40;;;6.10;93.30;;;;;;5031473;28;20455;-65
2022/03/01 09:20:26;;;;;;;13.67;10.93;;;6.40;93.40;;;;;;5031607;28;20496;-66
2022/03/01 09:22:53;;;;;;;17.07;13.53;;;6.50;92.30;;;;;;5029313;28;20461;-66
2022/03/01 09:25:20;;;;;;;14.13;12.20;;;6.60;92.40;;;;;;5028538;28;20441;-65
2022/03/01 09:27:47;;;;;;;12.00;9.27;;;6.70;91.40;;;;;;5027698;28;20441;-66
2022/03/01 09:30:16;;;;;;;16.67;9.40;;;6.80;91.10;;;;;;5028571;28;20477;-66
2022/03/01 09:32:43;;;;;;;14.13;9.07;;;6.90;90.70;;;;;;5029242;28;20452;-67
2022/03/01 09:35:11;;;;;;;14.93;9.50;;;7.10;90.90;;;;;;5029296;28;20481;-66
2022/03/01 09:37:38;;;;;;;14.00;10.10;;;7.30;90.20;;;;;;5029468;28;20540;-66
2022/03/01 09:40:07;;;;;;;12.60;9.70;;;7.50;90.00;;;;;;5029426;28;21008;-67
2022/03/01 09:42:34;;;;;;;9.97;8.30;;;7.60;87.80;;;;;;5029770;28;20456;-66
2022/03/01 09:45:02;;;;;;;13.90;9.60;;;7.80;87.50;;;;;;5029397;28;20449;-66
2022/03/01 09:47:31;;;;;;;12.37;9.60;;;7.80;86.70;;;;;;5029641;28;21298;-66
2022/03/01 09:49:57;;;;;;;10.70;8.40;;;7.90;86.20;;;;;;5030081;28;20990;-66
2022/03/01 09:52:25;;;;;;;12.27;8.37;;;8.10;85.90;;;;;;5029600;28;20544;-66
2022/03/01 09:54:53;;;;;;;11.50;9.27;;;8.30;84.90;;;;;;5029025;28;20445;-65
2022/03/01 09:57:20;;;;;;;12.43;9.03;;;8.70;84.20;;;;;;5040816;28;20715;-65
2022/03/01 09:59:47;;;;;;;11.30;7.80;;;8.70;83.00;;;;;;5047146;28;20547;-65
2022/03/01 10:02:15;;;;;;;10.27;8.60;;;9.20;82.50;;;;;;5048923;28;20443;-64
2022/03/01 10:04:52;;;;;;;13.03;8.27;;;9.50;80.50;;;;;;5048341;28;20443;-67
2022/03/01 10:07:22;;;;;;;11.47;8.90;;;9.90;77.80;;;;;;5050713;28;20456;-67
2022/03/01 10:09:49;;;;;;;11.20;8.50;;;9.90;77.40;;;;;;5049345;28;20480;-67
2022/03/01 10:12:24;;;;;;;12.93;9.70;;;10.10;75.40;;;;;;5048375;28;20446;-67
2022/03/01 10:14:59;;;;;;;9.30;8.17;;;10.00;72.90;;;;;;5048078;28;20447;-67
2022/03/01 10:17:34;;;;;;;10.20;8.00;;;10.10;74.20;;;;;;5049130;28;20530;-67
2022/03/01 10:20:04;;;;;;;12.33;7.90;;;10.50;71.70;;;;;;5048971;28;20492;-67
2022/03/01 10:22:31;;;;;;;10.57;8.30;;;10.80;71.10;;;;;;5049306;28;20539;-67
2022/03/01 10:25:05;;;;;;;14.17;10.40;;;11.30;68.30;;;;;;5051774;28;20478;-67
2022/03/01 10:27:33;;;;;;;9.93;8.13;;;11.30;63.30;;;;;;5052670;28;21159;-67
2022/03/01 10:30:00;;;;;;;11.80;8.33;;;11.20;62.00;;;;;;5052486;28;20571;-67
2022/03/01 10:32:26;;;;;;;9.33;8.33;;;11.30;67.60;;;;;;5052394;28;20440;-67
2022/03/01 10:35:02;;;;;;;12.70;8.00;;;11.50;68.10;;;;;;5052171;28;20454;-66
2022/03/01 10:37:30;;;;;;;10.90;9.43;;;11.50;65.60;;;;;;5052578;28;20477;-67
2022/03/01 10:40:11;;;;;;;10.40;7.90;;;11.90;61.90;;;;;;5052302;28;20487;-67
2022/03/01 10:42:38;;;;;;;10.80;7.83;;;11.60;62.50;;;;;;5052170;28;20454;-67
2022/03/01 10:45:07;;;;;;;10.97;8.60;;;11.80;64.20;;;;;;5052116;28;20539;-67
2022/03/01 10:47:35;;;;;;;9.77;8.77;;;11.70;63.00;;;;;;5052184;28;20454;-67
2022/03/01 10:50:07;;;;;;;11.97;9.53;;;12.00;62.60;;;;;;5052003;28;20472;-67
2022/03/01 10:52:34;;;;;;;11.13;8.30;;;12.30;60.60;;;;;;5052321;28;20459;-67
2022/03/01 10:55:02;;;;;;;11.23;8.77;;;13.10;60.60;;;;;;5051980;28;20535;-67
2022/03/01 10:57:29;;;;;;;10.33;8.97;;;13.30;59.10;;;;;;5051764;28;20476;-67
2022/03/01 10:59:57;;;;;;;10.50;8.20;;;13.70;58.10;;;;;;5052227;28;20486;-67
2022/03/01 11:02:23;;;;;;;11.30;9.13;;;13.90;57.90;;;;;;5051958;28;20448;-67
2022/03/01 11:04:52;;;;;;;11.33;8.27;;;14.10;55.70;;;;;;5051827;28;20446;-68
2022/03/01 11:07:21;;;;;;;10.57;8.60;;;14.70;55.70;;;;;;5051723;28;20440;-67
2022/03/01 11:09:48;;;;;;;10.57;8.77;;;14.80;54.10;;;;;;5042909;28;20468;-67
2022/03/01 11:12:21;;;;;;;8.70;7.80;;;14.00;56.50;;;;;;5046417;28;20454;-67
2022/03/01 11:15:01;;;;;;;9.77;7.83;;;14.60;55.50;;;;;;5044460;28;20531;-66
2022/03/01 11:17:39;;;;;;;10.40;8.53;;;14.80;55.30;;;;;;5047557;28;20490;-65
2022/03/01 11:20:10;;;;;;;10.97;9.30;;;15.30;52.50;;;;;;5047140;28;20471;-65
2022/03/01 11:22:44;;;;;;;8.53;7.63;;;14.50;51.20;;;;;;5047466;28;20444;-65
2022/03/01 11:25:19;;;;;;;9.90;7.67;;;13.70;52.50;;;;;;5046786;28;20452;-65
2022/03/01 11:27:47;;;;;;;10.57;8.17;;;13.80;53.60;;;;;;5047544;28;20820;-65
2022/03/01 11:30:16;;;;;;;8.73;7.67;;;13.70;53.00;;;;;;5047263;28;20932;-65
2022/03/01 11:32:45;;;;;;;10.40;8.23;;;14.10;54.20;;;;;;5047599;28;20437;-65
2022/03/01 11:35:19;;;;;;;11.83;8.37;;;14.70;49.90;;;;;;5046086;28;20447;-65
2022/03/01 11:37:58;;;;;;;10.37;8.00;;;14.60;50.90;;;;;;5047281;28;20439;-65
2022/03/01 11:40:25;;;;;;;9.60;8.50;;;14.80;51.20;;;;;;5046746;28;20463;-65
2022/03/01 11:42:53;;;;;;;9.33;7.63;;;15.30;50.80;;;;;;5046591;28;20938;-66
2022/03/01 11:45:20;;;;;;;9.40;8.10;;;16.20;50.60;;;;;;5046203;28;20440;-65
2022/03/01 11:47:47;;;;;;;8.50;7.60;;;16.20;47.00;;;;;;5046130;28;20443;-65
2022/03/01 11:50:15;;;;;;;8.87;7.97;;;15.70;47.10;;;;;;5046810;28;20456;-65
2022/03/01 11:52:57;;;;;;;9.33;8.00;;;16.00;48.90;;;;;;5046638;28;20436;-66
2022/03/01 11:55:28;;;;;;;10.63;8.73;;;16.40;48.20;;;;;;5045989;28;20543;-65
2022/03/01 11:57:56;;;;;;;11.20;8.10;;;16.60;48.20;;;;;;5046101;28;20440;-65
2022/03/01 12:00:26;;;;;;;9.43;8.40;;;17.20;45.70;;;;;;5046369;28;20467;-66
2022/03/01 12:02:53;;;;;;;9.20;7.90;;;17.60;46.50;;;;;;5044603;28;20452;-65
2022/03/01 12:05:23;;;;;;;11.20;7.63;;;16.80;43.10;;;;;;5046124;28;20953;-66
2022/03/01 12:07:53;;;;;;;11.10;8.70;;;17.10;45.60;;;;;;5046507;28;20436;-66
2022/03/01 12:10:22;;;;;;;9.13;8.10;;;16.60;44.80;;;;;;5046628;28;20475;-66
2022/03/01 12:12:50;;;;;;;8.87;7.40;;;16.60;43.90;;;;;;5046738;28;20447;-66
2022/03/01 12:15:28;;;;;;;7.90;6.87;;;16.30;44.30;;;;;;5044140;28;20459;-66
2022/03/01 12:17:55;;;;;;;11.40;8.47;;;16.90;44.30;;;;;;5044358;28;21145;-66
2022/03/01 12:20:23;;;;;;;8.47;7.57;;;17.40;41.80;;;;;;5046383;28;20477;-66
2022/03/01 12:23:01;;;;;;;7.97;6.87;;;17.00;43.30;;;;;;5040035;28;20438;-68
2022/03/01 12:25:32;;;;;;;8.60;7.27;;;17.10;42.10;;;;;;5040454;28;20453;-65
2022/03/01 12:28:02;;;;;;;9.70;7.53;;;17.70;43.40;;;;;;5036464;28;20452;-66
2022/03/01 12:30:29;;;;;;;8.80;7.30;;;18.40;42.10;;;;;;5035441;28;20472;-66
2022/03/01 12:32:58;;;;;;;8.20;7.27;;;18.40;41.30;;;;;;5044099;28;20456;-66
2022/03/01 12:35:27;;;;;;;8.10;7.23;;;18.20;40.30;;;;;;5038907;28;20539;-65
2022/03/01 12:38:05;;;;;;;8.47;7.63;;;17.50;40.10;;;;;;5042542;28;20558;-66
2022/03/01 12:40:34;;;;;;;9.70;7.50;;;16.30;43.30;;;;;;5042126;28;20546;-65
2022/03/01 12:43:02;;;;;;;8.57;7.10;;;14.70;44.50;;;;;;5043050;28;20468;-65